Terminal Aerodrome Forecast
Issued by NWS

Home | Current Version | Previous Version | Text Only | Print | Product List | Glossary On
Versions: 1 2 3 4 5 6 7 8 9 10 11 12 13 14 15 16 17 18 19 20 21 22 23 24 25 26 27 28 29 30 31 32 33 34 35 36 37
000
FTUS41 KCAR 100537
TAFFVE
TAF
KFVE 100537Z 1006/1106 30009G16KT 6SM -SHSN OVC022
     FM101500 31014G23KT P6SM VCSH BKN025
     FM101800 31014G23KT P6SM SCT030
     FM102300 30009KT P6SM SCT025
     FM110200 30007KT P6SM BKN022=

USA.gov is the U.S. government's official web portal to all federal, state and local government web resources and services.